createdAt,value
2022-10-09T00:01:47.534Z,92.76
2022-10-09T00:04:49.222Z,92.83
2022-10-09T00:07:50.944Z,93.62
2022-10-09T00:10:52.755Z,94.55
2022-10-09T00:13:55.648Z,94.80
2022-10-09T00:16:57.366Z,95.34
2022-10-09T00:19:59.080Z,95.13
2022-10-09T00:23:00.810Z,95.43
2022-10-09T00:26:02.586Z,96.86
2022-10-09T00:29:04.289Z,98.07
2022-10-09T00:32:05.904Z,98.22
2022-10-09T00:35:07.788Z,97.53
2022-10-09T00:38:10.612Z,97.75
2022-10-09T00:41:19.302Z,97.70
2022-10-09T00:44:47.470Z,98.79
2022-10-09T00:47:53.062Z,98.84
2022-10-09T00:50:58.219Z,98.95
2022-10-09T00:54:00.241Z,98.34
2022-10-09T00:57:02.331Z,99.27
2022-10-09T01:00:08.378Z,99.73
2022-10-09T01:03:09.997Z,99.56
2022-10-09T01:06:25.132Z,100.00
2022-10-09T01:09:55.099Z,100.00
2022-10-09T01:13:22.273Z,99.88
2022-10-09T01:16:35.374Z,100.00
2022-10-09T01:19:45.808Z,100.00
2022-10-09T01:22:53.325Z,100.00
2022-10-09T01:26:05.377Z,100.00
2022-10-09T01:29:10.659Z,100.00
2022-10-09T01:32:17.305Z,100.00
2022-10-09T01:35:21.439Z,100.00
2022-10-09T01:38:24.763Z,100.00
2022-10-09T01:41:27.293Z,100.00
2022-10-09T01:44:31.560Z,100.00
2022-10-09T01:47:33.215Z,100.00
2022-10-09T01:50:40.647Z,100.00
2022-10-09T01:53:44.266Z,100.00
2022-10-09T01:56:49.818Z,100.00
2022-10-09T01:59:52.603Z,100.00
2022-10-09T02:02:56.291Z,100.00
2022-10-09T02:05:58.523Z,100.00
2022-10-09T02:09:02.293Z,100.00
2022-10-09T02:12:07.955Z,100.00
2022-10-09T02:15:10.934Z,100.00
2022-10-09T02:18:16.874Z,100.00
2022-10-09T02:21:23.693Z,100.00
2022-10-09T02:24:25.915Z,100.00
2022-10-09T02:27:28.887Z,100.00
2022-10-09T02:30:41.860Z,100.00
2022-10-09T02:33:43.441Z,100.00
2022-10-09T02:36:46.099Z,100.00
2022-10-09T02:39:47.943Z,100.00
2022-10-09T02:42:49.824Z,100.00
2022-10-09T02:45:51.776Z,100.00
2022-10-09T02:48:53.677Z,100.00
2022-10-09T02:51:56.451Z,100.00
2022-10-09T02:54:58.148Z,100.00
2022-10-09T02:57:59.772Z,100.00
2022-10-09T03:01:01.940Z,100.00
2022-10-09T03:04:04.228Z,100.00
2022-10-09T03:07:05.865Z,100.00
2022-10-09T03:10:07.733Z,100.00
2022-10-09T03:13:09.403Z,100.00
2022-10-09T03:16:17.146Z,100.00
2022-10-09T03:19:18.879Z,100.00
2022-10-09T03:22:20.598Z,100.00
2022-10-09T03:25:22.669Z,100.00
2022-10-09T03:28:24.660Z,100.00
2022-10-09T03:31:52.332Z,100.00
2022-10-09T03:34:48.923Z,100.00
2022-10-09T03:37:50.514Z,100.00
2022-10-09T03:40:52.185Z,100.00
2022-10-09T03:43:54.815Z,100.00
2022-10-09T03:46:56.399Z,100.00
2022-10-09T03:49:58.084Z,100.00
2022-10-09T03:52:59.940Z,100.00
2022-10-09T03:56:01.607Z,100.00
2022-10-09T03:59:05.646Z,100.00
2022-10-09T04:02:08.171Z,100.00
2022-10-09T04:05:09.784Z,100.00
2022-10-09T04:08:11.960Z,100.00
2022-10-09T04:11:16.828Z,100.00
2022-10-09T04:14:18.431Z,100.00
2022-10-09T04:17:20.150Z,100.00
2022-10-09T04:20:22.493Z,100.00
2022-10-09T04:23:26.902Z,100.00
2022-10-09T04:26:28.727Z,100.00
2022-10-09T04:29:30.375Z,100.00
2022-10-09T04:32:32.022Z,100.00
2022-10-09T04:35:36.615Z,100.00
2022-10-09T04:38:38.294Z,100.00
2022-10-09T04:41:49.245Z,100.00
2022-10-09T04:45:06.543Z,100.00
2022-10-09T04:48:28.244Z,100.00
2022-10-09T04:51:44.262Z,100.00
2022-10-09T04:54:45.999Z,100.00
2022-10-09T04:57:47.792Z,100.00
2022-10-09T05:00:52.389Z,100.00
2022-10-09T05:04:05.063Z,100.00
2022-10-09T05:07:07.783Z,100.00
2022-10-09T05:10:12.038Z,100.00
2022-10-09T05:13:13.634Z,100.00
2022-10-09T05:16:20.909Z,100.00
2022-10-09T05:19:22.797Z,100.00
2022-10-09T05:22:24.842Z,100.00
2022-10-09T05:25:26.429Z,100.00
2022-10-09T05:28:28.684Z,100.00
2022-10-09T05:31:31.786Z,100.00
2022-10-09T05:34:36.542Z,100.00
2022-10-09T05:37:38.190Z,100.00
2022-10-09T05:41:03.623Z,100.00
2022-10-09T05:44:07.427Z,100.00
2022-10-09T05:47:09.111Z,100.00
2022-10-09T05:50:10.686Z,100.00
2022-10-09T05:53:12.329Z,100.00
2022-10-09T05:56:14.385Z,100.00
2022-10-09T05:59:21.916Z,100.00
2022-10-09T06:02:23.855Z,100.00
2022-10-09T06:05:25.544Z,100.00
2022-10-09T06:08:27.603Z,100.00
2022-10-09T06:11:35.376Z,100.00
2022-10-09T06:14:36.982Z,100.00
2022-10-09T06:17:38.593Z,100.00
2022-10-09T06:20:41.168Z,100.00
2022-10-09T06:23:44.236Z,100.00
2022-10-09T06:26:46.104Z,100.00
2022-10-09T06:29:47.745Z,100.00
2022-10-09T06:32:49.689Z,100.00
2022-10-09T06:35:51.540Z,100.00
2022-10-09T06:38:53.954Z,100.00
2022-10-09T06:41:55.804Z,100.00
2022-10-09T06:45:24.324Z,100.00
2022-10-09T06:48:26.085Z,100.00
2022-10-09T06:51:29.267Z,100.00
2022-10-09T06:54:30.879Z,100.00
2022-10-09T06:57:32.591Z,100.00
2022-10-09T07:00:34.190Z,100.00
2022-10-09T07:03:37.121Z,100.00
2022-10-09T07:06:41.899Z,100.00
2022-10-09T07:09:43.542Z,100.00
2022-10-09T07:12:45.104Z,100.00
2022-10-09T07:15:46.758Z,100.00
2022-10-09T07:18:49.419Z,100.00
2022-10-09T07:21:51.101Z,97.34
2022-10-09T07:24:52.718Z,97.24
2022-10-09T07:27:54.308Z,96.51
2022-10-09T07:30:56.764Z,93.18
2022-10-09T07:33:58.929Z,92.29
2022-10-09T07:37:00.525Z,92.56
2022-10-09T07:40:02.278Z,90.31
2022-10-09T07:43:04.181Z,91.39
2022-10-09T07:46:07.666Z,90.15
2022-10-09T07:49:09.412Z,89.12
2022-10-09T07:52:11.046Z,87.43
2022-10-09T07:55:12.749Z,87.09
2022-10-09T07:58:15.594Z,85.96
2022-10-09T08:01:20.327Z,84.08
2022-10-09T08:04:22.402Z,84.04
2022-10-09T08:07:24.094Z,84.89
2022-10-09T08:10:25.786Z,85.59
2022-10-09T08:13:27.438Z,85.22
2022-10-09T08:16:29.504Z,83.91
2022-10-09T08:19:31.178Z,83.44
2022-10-09T08:22:39.369Z,83.02
2022-10-09T08:25:43.836Z,83.00
2022-10-09T08:28:58.162Z,83.63
2022-10-09T08:31:59.894Z,83.02
2022-10-09T08:35:01.659Z,80.61
2022-10-09T08:38:03.344Z,80.01
2022-10-09T08:41:08.473Z,81.27
2022-10-09T08:44:24.234Z,80.17
2022-10-09T08:47:30.985Z,80.39
2022-10-09T08:50:38.191Z,77.42
2022-10-09T08:53:47.401Z,82.13
2022-10-09T08:56:51.910Z,81.28
2022-10-09T08:59:53.599Z,80.71
2022-10-09T09:03:07.498Z,81.67
2022-10-09T09:06:28.137Z,80.79
2022-10-09T09:09:53.256Z,79.50
2022-10-09T09:13:32.588Z,82.09
2022-10-09T09:17:05.395Z,81.17
2022-10-09T09:20:25.090Z,79.25
2022-10-09T09:23:30.361Z,77.11
2022-10-09T09:26:32.080Z,77.39
2022-10-09T09:29:41.111Z,78.71
2022-10-09T09:32:51.955Z,80.12
2022-10-09T09:35:59.635Z,76.52
2022-10-09T09:42:23.109Z,79.36
2022-10-09T09:45:26.706Z,77.47
2022-10-09T09:48:31.254Z,75.83
2022-10-09T09:51:35.882Z,75.58
2022-10-09T09:54:39.310Z,77.50
2022-10-09T09:57:45.135Z,76.48
2022-10-09T10:00:55.759Z,77.21
2022-10-09T10:03:59.910Z,75.14
2022-10-09T10:07:02.530Z,73.38
2022-10-09T10:10:09.967Z,71.68
2022-10-09T10:13:18.184Z,71.61
2022-10-09T10:16:27.140Z,75.62
2022-10-09T10:19:31.357Z,70.14
2022-10-09T10:22:33.430Z,71.52
2022-10-09T10:25:35.594Z,71.49
2022-10-09T10:28:47.146Z,69.82
2022-10-09T10:32:10.858Z,69.54
2022-10-09T10:35:20.089Z,68.38
2022-10-09T10:38:54.057Z,66.75
2022-10-09T10:42:05.911Z,69.60
2022-10-09T10:45:22.556Z,67.98
2022-10-09T10:48:32.026Z,68.95
2022-10-09T10:52:04.219Z,66.61
2022-10-09T10:55:39.041Z,63.69
2022-10-09T10:59:18.425Z,69.79
2022-10-09T11:02:42.044Z,65.92
2022-10-09T11:06:00.823Z,64.45
2022-10-09T11:09:12.392Z,63.82
2022-10-09T11:12:47.869Z,60.72
2022-10-09T11:16:11.551Z,61.29
2022-10-09T11:19:25.382Z,62.38
2022-10-09T11:22:29.958Z,61.40
2022-10-09T11:25:34.654Z,61.06
2022-10-09T11:29:00.760Z,59.85
2022-10-09T11:32:10.980Z,58.21
2022-10-09T11:35:12.795Z,58.82
2022-10-09T11:38:26.797Z,60.02
2022-10-09T11:41:31.006Z,62.15
2022-10-09T11:44:51.939Z,57.42
2022-10-09T11:48:10.169Z,56.92
2022-10-09T11:51:14.447Z,56.16
2022-10-09T11:54:19.577Z,58.42
2022-10-09T11:57:29.357Z,58.28
2022-10-09T12:00:34.335Z,59.04
2022-10-09T12:03:39.735Z,56.55
2022-10-09T12:06:56.547Z,58.48
2022-10-09T12:10:21.656Z,56.52
2022-10-09T12:13:34.675Z,55.71
2022-10-09T12:16:45.516Z,54.08
2022-10-09T12:19:53.859Z,54.49
2022-10-09T12:23:25.330Z,53.50
2022-10-09T12:26:25.775Z,53.74
2022-10-09T12:29:44.483Z,55.66
2022-10-09T12:32:58.768Z,52.45
2022-10-09T12:36:06.460Z,52.82
2022-10-09T12:39:18.972Z,51.72
2022-10-09T12:42:23.953Z,53.42
2022-10-09T12:45:30.331Z,53.74
2022-10-09T12:48:38.863Z,53.84
2022-10-09T12:51:40.487Z,51.25
2022-10-09T12:54:44.632Z,53.12
2022-10-09T12:57:46.451Z,54.17
2022-10-09T13:00:50.974Z,52.97
2022-10-09T13:04:05.844Z,50.65
2022-10-09T13:07:20.067Z,50.61
2022-10-09T13:10:23.335Z,51.30
2022-10-09T13:13:27.329Z,51.06
2022-10-09T13:16:48.762Z,52.87
2022-10-09T13:19:54.314Z,52.34
2022-10-09T13:23:01.847Z,51.10
2022-10-09T13:26:05.801Z,50.55
2022-10-09T13:29:07.737Z,47.61
2022-10-09T13:32:12.748Z,49.94
2022-10-09T13:35:14.430Z,49.05
2022-10-09T13:38:17.917Z,51.84
2022-10-09T13:41:23.667Z,47.83
2022-10-09T13:44:25.902Z,49.17
2022-10-09T13:47:27.695Z,50.87
2022-10-09T13:50:29.518Z,48.39
2022-10-09T13:53:31.271Z,45.52
2022-10-09T13:56:32.944Z,46.27
2022-10-09T13:59:34.637Z,47.15
2022-10-09T14:02:36.625Z,46.30
2022-10-09T14:05:38.421Z,48.45
2022-10-09T14:08:42.846Z,46.17
2022-10-09T14:11:46.758Z,47.32
2022-10-09T14:14:48.416Z,50.45
2022-10-09T14:17:50.271Z,48.37
2022-10-09T14:20:52.277Z,44.84
2022-10-09T14:23:57.028Z,46.39
2022-10-09T14:26:58.588Z,43.79
2022-10-09T14:30:00.388Z,43.54
2022-10-09T14:33:02.693Z,43.93
2022-10-09T14:36:15.664Z,42.35
2022-10-09T14:39:18.070Z,44.51
2022-10-09T14:42:19.671Z,46.71
2022-10-09T14:45:21.261Z,46.49
2022-10-09T14:48:22.845Z,44.59
2022-10-09T14:51:26.682Z,43.94
2022-10-09T14:54:28.388Z,44.38
2022-10-09T14:57:35.203Z,43.29
2022-10-09T15:00:37.293Z,43.27
2022-10-09T15:03:38.944Z,41.69
2022-10-09T15:06:40.656Z,43.31
2022-10-09T15:09:42.372Z,43.88
2022-10-09T15:12:44.012Z,44.45
2022-10-09T15:15:46.378Z,43.90
2022-10-09T15:18:53.164Z,44.62
2022-10-09T15:21:54.725Z,45.11
2022-10-09T15:24:56.941Z,44.76
2022-10-09T15:28:00.950Z,45.39
2022-10-09T15:31:03.838Z,46.31
2022-10-09T15:34:07.681Z,45.75
2022-10-09T15:37:09.311Z,45.51
2022-10-09T15:40:11.133Z,48.49
2022-10-09T15:43:14.160Z,50.73
2022-10-09T15:46:16.222Z,51.05
2022-10-09T15:49:18.124Z,53.21
2022-10-09T15:52:19.830Z,51.58
2022-10-09T15:55:21.447Z,49.48
2022-10-09T15:58:23.032Z,52.21
2022-10-09T16:01:25.414Z,52.61
2022-10-09T16:04:28.114Z,50.95
2022-10-09T16:07:29.983Z,54.39
2022-10-09T16:10:32.184Z,54.48
2022-10-09T16:13:37.925Z,56.21
2022-10-09T16:16:39.528Z,55.39
2022-10-09T16:19:41.243Z,56.65
2022-10-09T16:22:42.889Z,56.39
2022-10-09T16:25:44.749Z,56.43
2022-10-09T16:28:47.090Z,57.94
2022-10-09T16:31:48.754Z,58.26
2022-10-09T16:34:50.358Z,57.46
2022-10-09T16:37:52.593Z,58.54
2022-10-09T16:41:01.929Z,59.14
2022-10-09T16:44:12.432Z,58.79
2022-10-09T16:47:14.973Z,60.02
2022-10-09T16:50:16.625Z,59.72
2022-10-09T16:53:18.217Z,62.39
2022-10-09T16:56:22.996Z,62.37
2022-10-09T16:59:24.605Z,64.03
2022-10-09T17:02:26.265Z,66.12
2022-10-09T17:05:27.887Z,64.61
2022-10-09T17:08:30.175Z,65.10
2022-10-09T17:11:32.418Z,66.52
2022-10-09T17:14:35.615Z,65.05
2022-10-09T17:17:38.531Z,65.51
2022-10-09T17:20:40.594Z,66.54
2022-10-09T17:23:43.428Z,66.89
2022-10-09T17:26:45.399Z,66.75
2022-10-09T17:29:46.986Z,66.48
2022-10-09T17:32:48.941Z,66.78
2022-10-09T17:35:50.784Z,67.04
2022-10-09T17:38:53.137Z,67.04
2022-10-09T17:41:54.722Z,67.93
2022-10-09T17:44:56.366Z,66.91
2022-10-09T17:47:58.002Z,66.91
2022-10-09T17:51:01.765Z,66.36
2022-10-09T17:54:12.026Z,66.86
2022-10-09T17:57:15.554Z,67.59
2022-10-09T18:00:21.833Z,67.18
2022-10-09T18:03:25.709Z,67.12
2022-10-09T18:06:30.736Z,67.48
2022-10-09T18:09:32.686Z,68.20
2022-10-09T18:12:34.318Z,68.17
2022-10-09T18:15:59.318Z,67.84
2022-10-09T18:19:02.864Z,68.64
2022-10-09T18:22:04.740Z,68.95
2022-10-09T18:25:14.391Z,68.94
2022-10-09T18:28:16.500Z,69.55
2022-10-09T18:31:20.874Z,69.90
2022-10-09T18:34:23.523Z,69.93
2022-10-09T18:37:25.587Z,70.12
2022-10-09T18:40:28.170Z,70.22
2022-10-09T18:43:31.146Z,70.06
2022-10-09T18:46:43.072Z,70.53
2022-10-09T18:49:49.148Z,70.44
2022-10-09T18:52:51.570Z,70.80
2022-10-09T18:56:01.559Z,71.14
2022-10-09T18:59:17.961Z,71.36
2022-10-09T19:02:23.610Z,71.50
2022-10-09T19:05:28.976Z,71.59
2022-10-09T19:08:31.662Z,71.70
2022-10-09T19:11:36.691Z,72.02
2022-10-09T19:15:05.238Z,72.86
2022-10-09T19:18:10.256Z,73.31
2022-10-09T19:21:16.213Z,75.16
2022-10-09T19:24:20.049Z,78.67
2022-10-09T19:27:27.985Z,79.29
2022-10-09T19:30:30.385Z,78.61
2022-10-09T19:33:39.159Z,78.05
2022-10-09T19:36:43.651Z,78.01
2022-10-09T19:39:57.895Z,76.95
2022-10-09T19:46:31.675Z,75.18
2022-10-09T19:50:05.374Z,75.78
2022-10-09T19:56:27.304Z,75.73
2022-10-09T19:59:35.903Z,75.34
2022-10-09T20:02:53.362Z,74.73
2022-10-09T20:09:48.553Z,74.88
2022-10-09T20:12:56.487Z,74.85
2022-10-09T20:16:04.441Z,75.64
2022-10-09T20:19:07.614Z,74.82
2022-10-09T20:22:14.007Z,75.01
2022-10-09T20:25:50.944Z,76.44
2022-10-09T20:28:54.487Z,76.73
2022-10-09T20:32:07.089Z,77.72
2022-10-09T20:35:13.531Z,77.53
2022-10-09T20:38:25.906Z,77.50
2022-10-09T20:42:00.357Z,77.01
2022-10-09T20:45:16.835Z,77.56
2022-10-09T20:48:32.443Z,77.95
2022-10-09T20:51:41.008Z,78.24
2022-10-09T20:54:46.510Z,78.39
2022-10-09T20:57:56.564Z,78.66
2022-10-09T21:01:30.978Z,79.11
2022-10-09T21:04:43.050Z,79.17
2022-10-09T21:07:58.944Z,79.25
2022-10-09T21:11:14.171Z,80.25
2022-10-09T21:14:23.812Z,80.68
2022-10-09T21:17:29.706Z,80.85
2022-10-09T21:20:57.957Z,80.95
2022-10-09T21:24:06.780Z,81.43
2022-10-09T21:27:10.207Z,81.58
2022-10-09T21:30:21.326Z,81.17
2022-10-09T21:33:41.451Z,80.85
2022-10-09T21:41:01.221Z,82.17
2022-10-09T21:45:17.884Z,82.28
2022-10-09T21:48:29.169Z,82.67
2022-10-09T21:51:50.801Z,82.75
2022-10-09T21:55:20.376Z,82.98
2022-10-09T21:58:25.313Z,83.02
2022-10-09T22:01:36.347Z,83.04
2022-10-09T22:04:47.219Z,82.96
2022-10-09T22:07:49.155Z,83.29
2022-10-09T22:11:19.912Z,83.52
2022-10-09T22:14:37.138Z,83.89
2022-10-09T22:17:40.351Z,84.04
2022-10-09T22:20:46.894Z,84.67
2022-10-09T22:23:52.349Z,85.06
2022-10-09T22:26:58.201Z,85.97
2022-10-09T22:33:27.931Z,85.11
2022-10-09T22:36:37.809Z,84.87
2022-10-09T22:39:43.042Z,84.88
2022-10-09T22:42:45.471Z,85.05
2022-10-09T22:45:53.493Z,85.37
2022-10-09T22:48:56.178Z,85.62
2022-10-09T22:51:58.296Z,85.97
2022-10-09T22:55:06.065Z,86.13
2022-10-09T22:58:13.305Z,86.44
2022-10-09T23:01:41.196Z,86.34
2022-10-09T23:04:45.626Z,86.49
2022-10-09T23:07:47.560Z,86.29
2022-10-09T23:10:50.322Z,86.81
2022-10-09T23:14:00.035Z,86.78
2022-10-09T23:17:11.227Z,85.88
2022-10-09T23:20:19.886Z,85.95
2022-10-09T23:23:50.421Z,86.18
2022-10-09T23:27:21.674Z,86.91
2022-10-09T23:30:26.645Z,87.50
2022-10-09T23:33:35.126Z,87.87
2022-10-09T23:36:59.718Z,88.25
2022-10-09T23:40:01.893Z,88.01
2022-10-09T23:43:12.365Z,87.84
2022-10-09T23:46:30.234Z,88.25
2022-10-09T23:49:43.684Z,88.85
2022-10-09T23:52:51.041Z,89.75
2022-10-09T23:55:54.386Z,89.48
2022-10-09T23:59:19.124Z,88.88
